Flugplatz Norderney

Für EDWY sind keine METAR/TAF Berichte vorhanden.
Es werden die Flugwettermeldungen vom Flugplatz Wittmundhafen Airport in 33 km Entfernung angezeigt.

Bericht für ETNT

vom 28.01. um 15:30 UTC

Wind 25 kt aus 270° in Böen 41 kt

Sichtweite 10 km oder mehr

schwacher Regenschauer

schwacher Schneeschauer

aufgebrochene Bewölkung in 900 ft

aufgebrochene Bewölkung in 1300 ft

Temperatur 3.0°C

Taupunkt 2.0°C

Luftfeuchtigkeit 93%

Luftdruck 988 hPa

ETNT 281530Z 27025G41KT 9999 -SHRASN BKN009 BKN013 03/02 Q0988 GRN GRN TEMPO RED

Prognose für ETNT

vom 28.01. um 00:00 UTC

Zwischen 00:00 UTC und 00:00 UTC

Wind 15 kt aus 220° in Böen 25 kt

Sichtweite 7000 m

schwacher Regen

aufgelockert bewölkt in 800 ft

aufgebrochene Bewölkung in 1200 ft


Zwischen 00:00 UTC und 00:00 UTC zeitweise

Wind 20 kt aus 250° in Böen 35 kt

Sichtweite 500 m

starker Schneeschauer

Code: SHR

aufgebrochene Bewölkung in 800 ft


Zwischen 00:00 UTC und 00:00 UTC zeitweise

Wind 20 kt aus 270° in Böen 32 kt

Sichtweite 3000 m

Regenschauer

Code: SHGS

aufgebrochene Bewölkung in 500 ft

aufgebrochene Bewölkung in 1000 ft

TAF ETNT 281420Z 2815/2824 22015G25KT 7000 -RA SCT008 BKN012 TEMPO 2815/2818 25020G35KT 0500 +SHSNRA VV002 BKN008CB TEMPO 2818/2824 27020G32KT 3000 SHRAGS BKN005 BKN010CB BY ETGL
Impressum